createdAt,value
2022-10-15T00:00:19.872Z,78.32
2022-10-15T00:02:51.000Z,78.86
2022-10-15T00:05:20.275Z,78.36
2022-10-15T00:07:49.502Z,78.36
2022-10-15T00:10:25.863Z,78.56
2022-10-15T00:12:55.148Z,78.28
2022-10-15T00:15:24.732Z,78.49
2022-10-15T00:18:02.531Z,77.72
2022-10-15T00:20:36.732Z,77.63
2022-10-15T00:23:05.859Z,77.99
2022-10-15T00:25:34.974Z,77.83
2022-10-15T00:28:04.143Z,78.03
2022-10-15T00:30:33.343Z,78.50
2022-10-15T00:33:09.628Z,78.67
2022-10-15T00:38:22.593Z,79.02
2022-10-15T00:40:52.042Z,79.49
2022-10-15T00:43:40.758Z,79.85
2022-10-15T00:46:19.605Z,79.40
2022-10-15T00:48:53.064Z,79.37
2022-10-15T00:51:24.862Z,79.68
2022-10-15T00:53:56.459Z,79.83
2022-10-15T00:56:28.213Z,79.57
2022-10-15T00:58:58.789Z,79.75
2022-10-15T01:01:33.071Z,80.00
2022-10-15T01:04:08.031Z,79.60
2022-10-15T01:09:23.500Z,79.68
2022-10-15T01:11:56.185Z,79.86
2022-10-15T01:14:37.117Z,79.24
2022-10-15T01:17:11.572Z,79.33
2022-10-15T01:20:05.204Z,79.04
2022-10-15T01:22:55.296Z,78.85
2022-10-15T01:25:38.846Z,79.25
2022-10-15T01:28:21.080Z,79.34
2022-10-15T01:31:01.914Z,79.10
2022-10-15T01:33:38.728Z,79.12
2022-10-15T01:36:17.614Z,78.21
2022-10-15T01:38:54.206Z,78.83
2022-10-15T01:41:32.913Z,78.77
2022-10-15T01:44:07.174Z,78.62
2022-10-15T01:47:03.512Z,78.30
2022-10-15T01:49:36.492Z,78.67
2022-10-15T01:52:16.429Z,77.82
2022-10-15T01:54:49.183Z,77.84
2022-10-15T02:00:04.523Z,77.60
2022-10-15T02:05:28.700Z,77.76
2022-10-15T02:08:09.249Z,77.71
2022-10-15T02:10:49.097Z,77.80
2022-10-15T02:13:36.348Z,77.45
2022-10-15T02:16:31.239Z,77.10
2022-10-15T02:19:09.176Z,77.27
2022-10-15T02:21:44.749Z,77.49
2022-10-15T02:24:18.063Z,77.24
2022-10-15T02:26:48.549Z,76.82
2022-10-15T02:29:23.192Z,77.25
2022-10-15T02:31:53.404Z,77.35
2022-10-15T02:34:29.648Z,77.00
2022-10-15T02:37:04.098Z,77.27
2022-10-15T02:39:38.880Z,77.59
2022-10-15T02:42:19.792Z,77.77
2022-10-15T02:44:50.826Z,77.56
2022-10-15T02:47:20.211Z,77.60
2022-10-15T02:49:51.593Z,77.32
2022-10-15T02:52:26.101Z,77.79
2022-10-15T02:54:55.561Z,77.59
2022-10-15T02:57:24.992Z,77.67
2022-10-15T02:59:54.594Z,77.54
2022-10-15T03:02:23.719Z,77.14
2022-10-15T03:04:55.118Z,77.17
2022-10-15T03:07:26.116Z,77.23
2022-10-15T03:09:55.557Z,77.26
2022-10-15T03:12:26.110Z,77.09
2022-10-15T03:14:56.153Z,77.41
2022-10-15T03:17:26.489Z,77.30
2022-10-15T03:19:57.976Z,77.05
2022-10-15T03:22:27.220Z,76.84
2022-10-15T03:25:01.567Z,76.75
2022-10-15T03:27:32.955Z,76.94
2022-10-15T03:30:15.860Z,76.61
2022-10-15T03:32:45.101Z,76.97
2022-10-15T03:35:16.318Z,76.99
2022-10-15T03:37:50.748Z,76.63
2022-10-15T03:40:25.982Z,76.74
2022-10-15T03:42:59.381Z,76.68
2022-10-15T03:45:29.070Z,76.54
2022-10-15T03:48:13.251Z,76.47
2022-10-15T03:53:33.992Z,76.10
2022-10-15T03:56:06.234Z,75.93
2022-10-15T03:58:38.958Z,76.10
2022-10-15T04:01:18.421Z,76.13
2022-10-15T04:03:48.496Z,75.99
2022-10-15T04:06:22.102Z,75.71
2022-10-15T04:11:26.994Z,75.56
2022-10-15T04:14:07.834Z,75.62
2022-10-15T04:16:42.029Z,75.62
2022-10-15T04:19:17.262Z,75.43
2022-10-15T04:22:01.422Z,75.20
2022-10-15T04:24:35.377Z,74.95
2022-10-15T04:29:44.223Z,75.26
2022-10-15T04:32:17.602Z,74.96
2022-10-15T04:34:48.659Z,74.79
2022-10-15T04:37:22.150Z,74.49
2022-10-15T04:39:51.523Z,74.84
2022-10-15T04:42:21.925Z,74.56
2022-10-15T04:44:51.687Z,73.86
2022-10-15T04:47:25.976Z,73.99
2022-10-15T04:50:12.280Z,73.91
2022-10-15T04:53:06.921Z,73.89
2022-10-15T04:55:44.990Z,73.68
2022-10-15T04:58:14.556Z,73.35
2022-10-15T05:00:43.851Z,73.49
2022-10-15T05:03:29.010Z,73.61
2022-10-15T05:06:06.605Z,73.17
2022-10-15T05:08:41.381Z,73.28
2022-10-15T05:11:21.687Z,73.22
2022-10-15T05:14:03.171Z,73.18
2022-10-15T05:16:35.323Z,73.03
2022-10-15T05:19:07.535Z,72.29
2022-10-15T05:21:44.014Z,72.37
2022-10-15T05:24:27.592Z,71.99
2022-10-15T05:27:03.230Z,71.90
2022-10-15T05:29:35.727Z,72.04
2022-10-15T05:32:05.004Z,71.70
2022-10-15T05:34:34.131Z,71.42
2022-10-15T05:37:08.683Z,71.44
2022-10-15T05:39:39.903Z,71.22
2022-10-15T05:42:11.318Z,71.24
2022-10-15T05:44:58.718Z,70.85
2022-10-15T05:47:27.912Z,70.94
2022-10-15T05:50:14.111Z,70.33
2022-10-15T05:52:50.858Z,69.86
2022-10-15T05:55:55.076Z,69.43
2022-10-15T05:58:33.294Z,69.67
2022-10-15T06:03:56.292Z,69.00
2022-10-15T06:06:28.608Z,68.26
2022-10-15T06:09:02.896Z,68.58
2022-10-15T06:11:34.122Z,68.31
2022-10-15T06:14:03.400Z,68.10
2022-10-15T06:16:32.916Z,67.74
2022-10-15T06:19:02.095Z,67.77
2022-10-15T06:21:33.814Z,66.85
2022-10-15T06:24:05.177Z,66.54
2022-10-15T06:26:38.919Z,66.32
2022-10-15T06:29:08.164Z,66.19
2022-10-15T06:31:37.389Z,66.11
2022-10-15T06:34:11.929Z,65.95
2022-10-15T06:36:41.524Z,65.89
2022-10-15T06:39:10.590Z,65.73
2022-10-15T06:44:19.303Z,65.07
2022-10-15T06:46:48.449Z,64.89
2022-10-15T06:49:17.546Z,65.08
2022-10-15T06:51:46.771Z,64.71
2022-10-15T06:54:16.044Z,64.39
2022-10-15T06:56:47.095Z,64.10
2022-10-15T06:59:16.272Z,64.43
2022-10-15T07:01:45.460Z,64.25
2022-10-15T07:04:14.916Z,64.60
2022-10-15T07:06:44.062Z,64.18
2022-10-15T07:09:13.235Z,64.23
2022-10-15T07:11:42.378Z,63.79
2022-10-15T07:14:13.665Z,62.68
2022-10-15T07:19:18.766Z,62.29
2022-10-15T07:21:54.095Z,61.93
2022-10-15T07:24:23.404Z,62.35
2022-10-15T07:26:52.490Z,62.31
2022-10-15T07:29:23.571Z,61.67
2022-10-15T07:31:57.982Z,62.20
2022-10-15T07:34:27.918Z,62.14
2022-10-15T07:36:57.046Z,62.45
2022-10-15T07:39:26.159Z,62.37
2022-10-15T07:41:56.131Z,62.34
2022-10-15T07:44:27.166Z,62.42
2022-10-15T07:46:56.413Z,62.78
2022-10-15T07:49:25.614Z,63.05
2022-10-15T07:51:55.937Z,63.27
2022-10-15T07:54:27.433Z,63.21
2022-10-15T07:57:05.816Z,63.44
2022-10-15T07:59:42.070Z,62.94
2022-10-15T08:02:16.646Z,63.37
2022-10-15T08:04:50.937Z,63.69
2022-10-15T08:07:20.122Z,63.26
2022-10-15T08:09:49.290Z,63.31
2022-10-15T08:12:18.598Z,62.94
2022-10-15T08:14:54.890Z,62.55
2022-10-15T08:17:24.110Z,62.96
2022-10-15T08:19:53.300Z,62.69
2022-10-15T08:22:22.669Z,62.78
2022-10-15T08:24:52.130Z,63.22
2022-10-15T08:27:21.304Z,62.81
2022-10-15T08:29:50.506Z,62.75
2022-10-15T08:32:22.097Z,62.20
2022-10-15T08:34:53.546Z,62.33
2022-10-15T08:37:22.893Z,62.06
2022-10-15T08:39:51.967Z,61.68
2022-10-15T08:42:24.997Z,62.00
2022-10-15T08:45:00.212Z,61.15
2022-10-15T08:47:42.378Z,61.05
2022-10-15T08:50:23.874Z,61.25
2022-10-15T08:52:54.998Z,61.22
2022-10-15T08:55:37.302Z,61.06
2022-10-15T08:58:15.475Z,60.80
2022-10-15T09:00:49.293Z,60.69
2022-10-15T09:03:39.224Z,60.22
2022-10-15T09:06:16.641Z,59.61
2022-10-15T09:08:58.927Z,58.93
2022-10-15T09:11:38.643Z,58.83
2022-10-15T09:14:16.298Z,58.39
2022-10-15T09:16:49.577Z,58.09
2022-10-15T09:19:23.662Z,57.70
2022-10-15T09:21:54.297Z,57.94
2022-10-15T09:27:09.243Z,57.71
2022-10-15T09:29:46.032Z,57.83
2022-10-15T09:32:21.018Z,57.99
2022-10-15T09:35:00.040Z,57.48
2022-10-15T09:37:36.671Z,57.20
2022-10-15T09:40:37.717Z,57.31
2022-10-15T09:43:07.713Z,57.19
2022-10-15T09:45:36.793Z,56.71
2022-10-15T09:48:17.828Z,56.30
2022-10-15T09:50:57.655Z,56.40
2022-10-15T09:53:38.989Z,55.68
2022-10-15T09:56:15.605Z,54.82
2022-10-15T09:58:58.329Z,55.32
2022-10-15T10:01:28.834Z,55.04
2022-10-15T10:04:12.741Z,54.79
2022-10-15T10:06:53.419Z,54.09
2022-10-15T10:09:32.358Z,54.04
2022-10-15T10:12:05.790Z,54.19
2022-10-15T10:14:38.142Z,53.98
2022-10-15T10:17:15.088Z,54.60
2022-10-15T10:19:44.780Z,55.15
2022-10-15T10:22:19.394Z,55.63
2022-10-15T10:24:53.581Z,55.55
2022-10-15T10:27:25.643Z,56.13
2022-10-15T10:30:04.076Z,55.84
2022-10-15T10:32:38.102Z,55.25
2022-10-15T10:35:28.189Z,55.14
2022-10-15T10:37:59.360Z,55.64
2022-10-15T10:40:37.623Z,56.31
2022-10-15T10:43:25.712Z,56.59
2022-10-15T10:46:02.352Z,57.11
2022-10-15T10:48:42.668Z,57.22
2022-10-15T10:51:21.579Z,58.11
2022-10-15T10:54:00.978Z,57.99
2022-10-15T10:56:38.746Z,58.47
2022-10-15T10:59:20.723Z,58.50
2022-10-15T11:01:52.443Z,58.83
2022-10-15T11:04:27.071Z,58.83
2022-10-15T11:07:05.017Z,59.01
2022-10-15T11:09:53.751Z,59.53
2022-10-15T11:12:45.518Z,58.94
2022-10-15T11:15:31.969Z,58.80
2022-10-15T11:18:20.642Z,59.25
2022-10-15T11:21:00.709Z,59.07
2022-10-15T11:23:48.910Z,58.78
2022-10-15T11:26:41.676Z,58.59
2022-10-15T11:29:36.653Z,58.06
2022-10-15T11:32:22.196Z,58.36
2022-10-15T11:35:24.079Z,58.06
2022-10-15T11:38:17.697Z,57.88
2022-10-15T11:41:01.466Z,58.25
2022-10-15T11:43:54.920Z,58.00
2022-10-15T11:46:36.504Z,57.79
2022-10-15T11:49:17.406Z,57.60
2022-10-15T11:52:04.714Z,57.82
2022-10-15T11:54:40.237Z,58.24
2022-10-15T11:57:14.469Z,57.79
2022-10-15T11:59:56.515Z,57.99
2022-10-15T12:02:32.618Z,58.42
2022-10-15T12:05:07.077Z,58.65
2022-10-15T12:07:57.584Z,59.12
2022-10-15T12:10:41.337Z,58.92
2022-10-15T12:13:21.687Z,59.08
2022-10-15T12:16:02.760Z,59.14
2022-10-15T12:18:50.800Z,58.80
2022-10-15T12:21:34.496Z,58.70
2022-10-15T12:24:09.403Z,58.61
2022-10-15T12:26:39.099Z,58.89
2022-10-15T12:29:19.888Z,58.78
2022-10-15T12:31:59.396Z,58.92
2022-10-15T12:34:34.359Z,58.97
2022-10-15T12:37:08.851Z,58.71
2022-10-15T12:39:51.641Z,59.27
2022-10-15T12:42:29.408Z,59.35
2022-10-15T12:45:08.032Z,58.94
2022-10-15T12:47:54.399Z,59.49
2022-10-15T12:56:26.286Z,59.19
2022-10-15T12:58:57.565Z,59.20
2022-10-15T13:04:06.462Z,59.57
2022-10-15T13:06:39.803Z,59.50
2022-10-15T13:09:26.036Z,59.73
2022-10-15T13:11:57.498Z,59.77
2022-10-15T13:14:36.900Z,59.81
2022-10-15T13:17:15.574Z,60.15
2022-10-15T13:19:56.047Z,60.00
2022-10-15T13:22:27.673Z,60.31
2022-10-15T13:24:57.784Z,60.33
2022-10-15T13:27:34.021Z,60.60
2022-10-15T13:30:08.680Z,61.04
2022-10-15T13:32:42.266Z,61.17
2022-10-15T13:35:14.888Z,61.08
2022-10-15T13:37:46.500Z,61.35
2022-10-15T13:40:22.481Z,61.74
2022-10-15T13:43:01.451Z,62.51
2022-10-15T13:45:32.920Z,62.22
2022-10-15T13:48:03.539Z,62.95
2022-10-15T13:50:35.126Z,63.39
2022-10-15T13:53:13.982Z,63.77
2022-10-15T13:55:50.112Z,63.33
2022-10-15T13:58:29.038Z,63.75
2022-10-15T14:01:07.577Z,64.09
2022-10-15T14:03:38.623Z,64.14
2022-10-15T14:06:17.849Z,64.83
2022-10-15T14:08:48.659Z,64.54
2022-10-15T14:11:23.493Z,65.06
2022-10-15T14:13:57.359Z,65.35
2022-10-15T14:16:37.745Z,65.53
2022-10-15T14:19:14.813Z,65.85
2022-10-15T14:21:48.177Z,65.41
2022-10-15T14:24:23.937Z,65.90
2022-10-15T14:26:53.347Z,65.69
2022-10-15T14:29:27.070Z,66.12
2022-10-15T14:31:58.961Z,66.81
2022-10-15T14:34:32.292Z,66.42
2022-10-15T14:37:24.790Z,66.86
2022-10-15T14:40:06.490Z,67.28
2022-10-15T14:42:36.879Z,67.35
2022-10-15T14:45:14.349Z,67.73
2022-10-15T14:47:47.772Z,68.01
2022-10-15T14:50:17.832Z,67.65
2022-10-15T14:52:49.605Z,68.30
2022-10-15T14:55:27.909Z,67.94
2022-10-15T14:57:57.489Z,67.93
2022-10-15T15:00:29.621Z,68.46
2022-10-15T15:03:03.504Z,69.29
2022-10-15T15:05:32.796Z,69.01
2022-10-15T15:08:06.453Z,69.23
2022-10-15T15:10:36.375Z,69.45
2022-10-15T15:13:05.812Z,69.19
2022-10-15T15:18:21.009Z,69.33
2022-10-15T15:20:51.681Z,69.53
2022-10-15T15:23:23.884Z,69.31
2022-10-15T15:25:53.725Z,69.10
2022-10-15T15:28:25.615Z,69.38
2022-10-15T15:30:59.139Z,69.83
2022-10-15T15:33:30.770Z,69.35
2022-10-15T15:36:04.692Z,69.70
2022-10-15T15:38:47.721Z,69.25
2022-10-15T15:41:18.838Z,69.63
2022-10-15T15:43:53.980Z,69.42
2022-10-15T15:51:42.726Z,70.19
2022-10-15T15:54:11.957Z,69.93
2022-10-15T15:56:41.484Z,70.17
2022-10-15T15:59:10.873Z,70.22
2022-10-15T16:01:41.743Z,70.39
2022-10-15T16:06:53.638Z,70.69
2022-10-15T16:09:23.917Z,70.84
2022-10-15T16:11:53.337Z,70.87
2022-10-15T16:14:22.520Z,71.13
2022-10-15T16:16:57.966Z,71.36
2022-10-15T16:19:29.635Z,71.55
2022-10-15T16:21:58.871Z,71.17
2022-10-15T16:24:28.299Z,71.52
2022-10-15T16:26:58.177Z,71.90
2022-10-15T16:29:30.368Z,72.16
2022-10-15T16:31:59.720Z,72.09
2022-10-15T16:34:36.116Z,72.67
2022-10-15T16:37:05.806Z,72.78
2022-10-15T16:39:37.003Z,72.94
2022-10-15T16:42:08.009Z,73.12
2022-10-15T16:44:37.429Z,73.01
2022-10-15T16:47:06.530Z,73.44
2022-10-15T16:49:42.910Z,74.48
2022-10-15T16:52:12.201Z,73.77
2022-10-15T16:54:41.334Z,74.09
2022-10-15T16:57:11.264Z,74.27
2022-10-15T16:59:40.403Z,74.58
2022-10-15T17:02:15.557Z,75.69
2022-10-15T17:04:46.898Z,75.70
2022-10-15T17:07:16.274Z,75.73
2022-10-15T17:09:47.395Z,76.15
2022-10-15T17:15:06.390Z,76.52
2022-10-15T17:17:35.738Z,76.44
2022-10-15T17:20:08.746Z,77.14
2022-10-15T17:22:38.149Z,76.80
2022-10-15T17:25:08.280Z,77.38
2022-10-15T17:27:37.457Z,77.41
2022-10-15T17:30:08.014Z,77.47
2022-10-15T17:35:14.251Z,77.56
2022-10-15T17:37:48.517Z,77.65
2022-10-15T17:40:19.419Z,77.98
2022-10-15T17:42:55.338Z,78.09
2022-10-15T17:45:25.134Z,77.55
2022-10-15T17:47:54.529Z,77.88
2022-10-15T17:50:25.845Z,78.17
2022-10-15T17:53:02.616Z,77.91
2022-10-15T17:55:36.652Z,78.10
2022-10-15T17:58:06.854Z,77.20
2022-10-15T18:00:36.022Z,77.93
2022-10-15T18:03:05.180Z,78.03
2022-10-15T18:05:36.764Z,78.64
2022-10-15T18:08:11.008Z,78.36
2022-10-15T18:10:47.233Z,78.74
2022-10-15T18:13:16.549Z,78.65
2022-10-15T18:15:52.169Z,79.37
2022-10-15T18:18:26.446Z,78.73
2022-10-15T18:20:57.950Z,79.04
2022-10-15T18:23:29.024Z,79.13
2022-10-15T18:26:09.296Z,80.07
2022-10-15T18:28:51.001Z,79.68
2022-10-15T18:31:21.679Z,79.13
2022-10-15T18:33:53.133Z,78.84
2022-10-15T18:36:26.290Z,78.82
2022-10-15T18:38:56.218Z,78.42
2022-10-15T18:41:28.144Z,78.63
2022-10-15T18:44:04.204Z,78.94
2022-10-15T18:46:34.592Z,79.03
2022-10-15T18:49:04.535Z,78.26
2022-10-15T18:51:40.751Z,78.74
2022-10-15T18:54:11.187Z,78.26
2022-10-15T18:56:40.730Z,78.33
2022-10-15T18:59:09.944Z,78.33
2022-10-15T19:01:41.525Z,78.08
2022-10-15T19:04:12.965Z,78.26
2022-10-15T19:06:50.650Z,77.84
2022-10-15T19:09:21.813Z,77.44
2022-10-15T19:11:54.058Z,77.70
2022-10-15T19:14:29.906Z,77.64
2022-10-15T19:17:10.597Z,77.92
2022-10-15T19:19:39.904Z,78.06
2022-10-15T19:22:16.048Z,77.87
2022-10-15T19:24:45.481Z,77.39
2022-10-15T19:27:14.564Z,77.66
2022-10-15T19:29:43.907Z,78.14
2022-10-15T19:32:13.068Z,78.00
2022-10-15T19:34:42.842Z,77.91
2022-10-15T19:37:13.966Z,77.85
2022-10-15T19:39:50.253Z,77.49
2022-10-15T19:44:54.415Z,78.09
2022-10-15T19:47:24.627Z,78.13
2022-10-15T19:49:59.107Z,78.26
2022-10-15T19:52:34.645Z,77.88
2022-10-15T19:55:05.547Z,77.83
2022-10-15T19:57:35.765Z,77.86
2022-10-15T20:00:11.384Z,77.89
2022-10-15T20:02:43.458Z,77.67
2022-10-15T20:05:13.064Z,77.60
2022-10-15T20:07:44.597Z,77.58
2022-10-15T20:10:14.033Z,77.11
2022-10-15T20:12:43.241Z,77.24
2022-10-15T20:15:12.889Z,77.07
2022-10-15T20:17:47.689Z,77.17
2022-10-15T20:20:17.334Z,77.13
2022-10-15T20:22:48.447Z,77.33
2022-10-15T20:25:18.258Z,77.46
2022-10-15T20:27:49.397Z,76.98
2022-10-15T20:30:18.620Z,77.08
2022-10-15T20:32:48.327Z,77.00
2022-10-15T20:35:19.675Z,77.07
2022-10-15T20:37:51.261Z,76.22
2022-10-15T20:40:20.573Z,75.94
2022-10-15T20:42:49.900Z,75.17
2022-10-15T20:45:19.430Z,74.93
2022-10-15T20:47:56.849Z,74.11
2022-10-15T20:50:29.587Z,74.37
2022-10-15T20:53:06.048Z,73.51
2022-10-15T20:55:36.632Z,73.36
2022-10-15T20:58:06.040Z,73.69
2022-10-15T21:00:40.536Z,73.80
2022-10-15T21:03:09.782Z,73.77
2022-10-15T21:05:38.997Z,73.74
2022-10-15T21:08:10.134Z,73.56
2022-10-15T21:10:39.656Z,73.38
2022-10-15T21:13:08.958Z,72.99
2022-10-15T21:18:18.925Z,73.13
2022-10-15T21:20:48.320Z,73.52
2022-10-15T21:23:19.563Z,73.13
2022-10-15T21:25:49.896Z,73.24
2022-10-15T21:28:19.077Z,73.35
2022-10-15T21:30:48.349Z,73.45
2022-10-15T21:33:25.689Z,73.72
2022-10-15T21:35:54.960Z,73.64
2022-10-15T21:38:26.098Z,73.49
2022-10-15T21:40:55.328Z,73.78
2022-10-15T21:43:24.533Z,73.24
2022-10-15T21:45:53.726Z,73.58
2022-10-15T21:50:58.158Z,73.71
2022-10-15T21:53:29.877Z,73.93
2022-10-15T21:56:05.173Z,73.89
2022-10-15T21:58:35.982Z,73.76
2022-10-15T22:01:13.570Z,73.90
2022-10-15T22:03:46.404Z,74.13
2022-10-15T22:06:22.235Z,73.96
2022-10-15T22:08:53.353Z,74.20
2022-10-15T22:11:30.060Z,73.80
2022-10-15T22:14:08.213Z,73.89
2022-10-15T22:16:38.802Z,74.47
2022-10-15T22:19:09.541Z,74.50
2022-10-15T22:21:45.550Z,74.29
2022-10-15T22:24:29.102Z,74.35
2022-10-15T22:27:04.653Z,74.08
2022-10-15T22:29:35.440Z,74.29
2022-10-15T22:32:09.857Z,74.20
2022-10-15T22:34:39.291Z,74.22
2022-10-15T22:37:08.438Z,74.65
2022-10-15T22:39:40.098Z,74.37
2022-10-15T22:42:14.285Z,74.34
2022-10-15T22:44:43.649Z,74.78
2022-10-15T22:47:12.883Z,75.00
2022-10-15T22:49:42.186Z,75.30
2022-10-15T22:52:16.459Z,75.69
2022-10-15T22:54:47.706Z,75.44
2022-10-15T22:57:16.904Z,75.62
2022-10-15T22:59:46.038Z,75.81
2022-10-15T23:02:15.217Z,75.79
2022-10-15T23:04:44.367Z,76.29
2022-10-15T23:07:13.654Z,76.00
2022-10-15T23:09:42.779Z,75.96
2022-10-15T23:12:18.971Z,76.50
2022-10-15T23:14:49.838Z,76.51
2022-10-15T23:17:24.827Z,76.24
2022-10-15T23:19:53.964Z,76.44
2022-10-15T23:22:30.030Z,76.40
2022-10-15T23:25:04.626Z,76.47
2022-10-15T23:27:37.383Z,76.43
2022-10-15T23:30:23.757Z,76.80
2022-10-15T23:32:53.754Z,76.77
2022-10-15T23:35:22.945Z,76.63
2022-10-15T23:37:52.226Z,77.15
2022-10-15T23:40:21.402Z,76.91
2022-10-15T23:42:52.649Z,77.24
2022-10-15T23:45:26.926Z,76.94
2022-10-15T23:47:57.288Z,77.39
2022-10-15T23:50:26.625Z,77.84
2022-10-15T23:53:00.676Z,77.73
2022-10-15T23:55:39.873Z,77.86
2022-10-15T23:58:16.297Z,78.01
